Time;durP1;ratioP1;P1;durP2;ratioP2;P2;SDS_P1;SDS_P2;PMS_P1;PMS_P2;Temp;Humidity;BMP_temperature;BMP_pressure;BME280_temperature;BME280_humidity;BME280_pressure;Samples;Min_cycle;Max_cycle;Signal;HPM_P1;HPM_P2
2022/04/16 00:01:17;;;;;;;18.13;14.83;;;8.00;99.90;;;;;;5031474;28;20051;-51
2022/04/16 00:03:43;;;;;;;21.77;14.50;;;8.00;99.90;;;;;;5040201;28;20045;-51
2022/04/16 00:06:09;;;;;;;19.48;14.45;;;8.00;99.90;;;;;;5049524;28;20051;-51
2022/04/16 00:08:35;;;;;;;18.90;14.57;;;7.90;99.90;;;;;;5034202;28;20529;-50
2022/04/16 00:11:00;;;;;;;17.87;14.50;;;7.90;99.90;;;;;;5031596;28;20033;-48
2022/04/16 00:13:26;;;;;;;22.45;16.08;;;7.90;99.90;;;;;;5043249;28;20555;-50
2022/04/16 00:15:55;;;;;;;17.80;15.40;;;7.90;99.90;;;;;;5048997;28;20066;-50
2022/04/16 00:18:22;;;;;;;18.73;15.00;;;7.80;99.90;;;;;;5036740;28;20113;-48
2022/04/16 00:20:51;;;;;;;20.50;14.48;;;7.90;99.90;;;;;;5030634;28;20132;-48
2022/04/16 00:23:19;;;;;;;23.48;16.52;;;7.80;99.90;;;;;;5036006;28;20813;-50
2022/04/16 00:25:45;;;;;;;21.48;16.27;;;7.80;99.90;;;;;;5028804;28;20084;-52
2022/04/16 00:28:11;;;;;;;;;;;7.70;99.90;;;;;;5038592;28;20505;-48
2022/04/16 00:30:40;;;;;;;19.88;16.10;;;7.70;99.90;;;;;;5029951;28;19917;-49
2022/04/16 00:33:10;;;;;;;21.00;15.93;;;7.70;99.90;;;;;;5034365;28;20274;-49
2022/04/16 00:35:37;;;;;;;21.70;17.33;;;7.70;99.90;;;;;;5033100;28;20052;-51
2022/04/16 00:38:03;;;;;;;24.95;17.83;;;7.70;99.90;;;;;;5037971;28;20108;-51
2022/04/16 00:40:29;;;;;;;22.80;18.25;;;7.60;99.90;;;;;;5048797;28;20107;-49
2022/04/16 00:42:55;;;;;;;21.50;17.70;;;7.60;99.90;;;;;;5037675;28;20461;-51
2022/04/16 00:45:21;;;;;;;26.25;19.02;;;7.60;99.90;;;;;;5030478;28;20037;-52
2022/04/16 00:47:47;;;;;;;;;;;7.60;99.90;;;;;;5032000;28;20041;-48
2022/04/16 00:50:13;;;;;;;25.92;21.15;;;7.60;99.90;;;;;;5048693;28;19923;-51
2022/04/16 00:52:40;;;;;;;28.17;20.90;;;7.60;99.90;;;;;;5047132;28;20041;-51
2022/04/16 00:55:08;;;;;;;26.05;21.55;;;7.60;99.90;;;;;;5037662;28;20593;-48
2022/04/16 00:57:34;;;;;;;25.77;22.27;;;7.50;99.90;;;;;;5031754;28;20121;-48
2022/04/16 01:00:02;;;;;;;24.60;21.63;;;7.50;99.90;;;;;;5043923;28;20057;-48
2022/04/16 01:02:28;;;;;;;30.30;23.30;;;7.50;99.90;;;;;;5046551;28;20037;-47
2022/04/16 01:04:54;;;;;;;24.70;20.33;;;7.50;99.90;;;;;;5034036;28;20517;-49
2022/04/16 01:07:25;;;;;;;26.00;22.33;;;7.50;99.90;;;;;;5031058;28;20049;-48
2022/04/16 01:09:51;;;;;;;26.05;21.83;;;7.50;99.90;;;;;;5047426;28;20124;-48
2022/04/16 01:12:18;;;;;;;25.83;20.33;;;7.50;99.90;;;;;;5047991;28;20037;-48
2022/04/16 01:14:45;;;;;;;25.17;19.73;;;7.50;99.90;;;;;;5048327;28;20045;-48
2022/04/16 01:17:12;;;;;;;21.05;18.73;;;7.50;99.90;;;;;;5047740;28;20047;-49
2022/04/16 01:19:38;;;;;;;23.58;18.20;;;7.50;99.90;;;;;;5029521;28;20465;-48
2022/04/16 01:22:06;;;;;;;29.50;20.45;;;7.50;99.90;;;;;;5029605;28;20042;-48
2022/04/16 01:24:32;;;;;;;26.48;18.95;;;7.50;99.90;;;;;;5040699;28;20119;-50
2022/04/16 01:26:58;;;;;;;25.02;18.95;;;7.60;99.90;;;;;;5042753;28;20498;-48
2022/04/16 01:29:24;;;;;;;;;;;7.60;99.90;;;;;;5033757;28;20068;-50
2022/04/16 01:31:50;;;;;;;28.75;19.73;;;7.60;99.90;;;;;;5029555;28;20382;-48
2022/04/16 01:34:17;;;;;;;23.77;17.88;;;7.60;99.90;;;;;;5042966;28;20451;-49
2022/04/16 01:36:43;;;;;;;26.25;19.15;;;7.60;99.90;;;;;;5046344;28;20066;-48
2022/04/16 01:39:09;;;;;;;25.60;19.08;;;7.60;99.90;;;;;;5037234;28;20038;-48
2022/04/16 01:41:35;;;;;;;25.30;19.92;;;7.50;99.90;;;;;;5029429;28;20045;-49
2022/04/16 01:44:01;;;;;;;29.25;20.30;;;7.50;99.90;;;;;;5043302;28;20056;-50
2022/04/16 01:46:27;;;;;;;26.38;19.77;;;7.50;99.90;;;;;;5042952;28;20037;-49
2022/04/16 01:48:53;;;;;;;25.52;18.35;;;7.50;99.90;;;;;;5042163;28;20033;-48
2022/04/16 01:51:20;;;;;;;25.67;20.25;;;7.50;99.90;;;;;;5051583;28;20068;-50
2022/04/16 01:53:46;;;;;;;27.90;19.80;;;7.50;99.90;;;;;;5045927;28;20041;-48
2022/04/16 01:56:12;;;;;;;33.63;22.30;;;7.50;99.90;;;;;;5032426;28;20033;-49
2022/04/16 01:58:38;;;;;;;30.40;20.83;;;7.50;99.90;;;;;;5035466;28;20159;-49
2022/04/16 02:01:05;;;;;;;33.95;22.30;;;7.40;99.90;;;;;;5037311;28;20288;-51
2022/04/16 02:03:34;;;;;;;30.40;21.33;;;7.40;99.90;;;;;;5035914;28;20040;-48
2022/04/16 02:05:59;;;;;;;26.77;21.23;;;7.40;99.90;;;;;;5033777;28;20033;-48
2022/04/16 02:08:25;;;;;;;31.10;20.98;;;7.40;99.90;;;;;;5040753;28;20048;-49
2022/04/16 02:10:51;;;;;;;34.42;22.60;;;7.40;99.90;;;;;;5033025;28;20135;-48
2022/04/16 02:13:16;;;;;;;30.07;20.90;;;7.40;99.90;;;;;;5033048;28;20486;-49
2022/04/16 02:15:42;;;;;;;29.10;21.80;;;7.40;99.90;;;;;;5041590;28;20498;-49
2022/04/16 02:18:07;;;;;;;28.17;22.27;;;7.40;99.90;;;;;;5032389;28;20172;-49
2022/04/16 02:20:36;;;;;;;28.37;21.57;;;7.30;99.90;;;;;;5033630;28;20124;-48
2022/04/16 02:23:02;;;;;;;28.98;21.33;;;7.30;99.90;;;;;;5032745;28;20041;-49
2022/04/16 02:25:28;;;;;;;;;;;7.30;99.90;;;;;;5048219;28;20037;-51
2022/04/16 02:27:53;;;;;;;38.22;21.45;;;7.30;99.90;;;;;;5052262;28;19917;-48
2022/04/16 02:30:19;;;;;;;31.77;22.23;;;7.30;99.90;;;;;;5049304;28;20037;-49
2022/04/16 02:32:48;;;;;;;30.20;22.67;;;7.30;99.90;;;;;;5050849;28;20049;-49
2022/04/16 02:35:15;;;;;;;33.15;22.73;;;7.20;99.90;;;;;;5036085;28;20436;-50
2022/04/16 02:37:42;;;;;;;29.17;21.48;;;7.20;99.90;;;;;;5049291;28;20465;-48
2022/04/16 02:40:09;;;;;;;33.10;23.58;;;7.20;99.90;;;;;;5039436;28;20529;-52
2022/04/16 02:42:35;;;;;;;;;;;7.20;99.90;;;;;;5032588;28;20052;-51
2022/04/16 02:47:47;;;;;;;34.05;23.02;;;7.20;99.90;;;;;;5030693;28;20511;-49
2022/04/16 02:50:13;;;;;;;31.10;22.30;;;7.20;99.90;;;;;;5043620;28;20321;-47
2022/04/16 02:52:39;;;;;;;34.80;24.20;;;7.20;99.90;;;;;;5049526;28;20120;-48
2022/04/16 02:55:05;;;;;;;36.13;24.05;;;7.20;99.90;;;;;;5040328;28;20284;-48
2022/04/16 02:57:31;;;;;;;33.10;23.15;;;7.20;99.90;;;;;;5040933;28;20041;-48
2022/04/16 02:59:57;;;;;;;35.15;23.33;;;7.20;99.90;;;;;;5050239;28;20025;-47
2022/04/16 03:02:23;;;;;;;31.15;23.83;;;7.10;99.90;;;;;;5048456;28;20094;-48
2022/04/16 03:04:50;;;;;;;34.97;23.77;;;7.20;99.90;;;;;;5044017;28;20120;-48
2022/04/16 03:07:16;;;;;;;37.10;25.15;;;7.20;99.90;;;;;;5039573;28;20067;-48
2022/04/16 03:09:42;;;;;;;;;;;7.20;99.90;;;;;;5050806;28;20171;-49
2022/04/16 03:12:07;;;;;;;31.73;24.02;;;7.20;99.90;;;;;;5050370;28;20015;-48
2022/04/16 03:17:32;;;;;;;34.67;24.48;;;7.20;99.90;;;;;;5031733;28;20042;-49
2022/04/16 03:20:04;;;;;;;34.58;24.80;;;7.30;99.90;;;;;;5036824;28;20566;-48
2022/04/16 03:22:32;;;;;;;36.50;26.08;;;7.30;99.90;;;;;;5051137;28;20628;-49
2022/04/16 03:24:57;;;;;;;37.72;26.05;;;7.30;99.90;;;;;;5048171;28;20040;-48
2022/04/16 03:27:23;;;;;;;40.73;27.83;;;7.30;99.90;;;;;;5050567;28;20429;-48
2022/04/16 03:29:48;;;;;;;41.03;27.40;;;7.30;99.90;;;;;;5047806;28;20287;-48
2022/04/16 03:32:14;;;;;;;39.63;28.80;;;7.30;99.90;;;;;;5029666;28;20041;-49
2022/04/16 03:34:40;;;;;;;41.77;29.27;;;7.40;99.90;;;;;;5031532;28;20039;-48
2022/04/16 03:37:06;;;;;;;40.05;29.05;;;7.40;99.90;;;;;;5050966;28;20052;-48
2022/04/16 03:39:31;;;;;;;41.72;29.30;;;7.40;99.90;;;;;;5049854;28;20167;-49
2022/04/16 03:41:57;;;;;;;37.53;27.83;;;7.50;99.90;;;;;;5050129;28;20049;-48
2022/04/16 03:44:22;;;;;;;40.60;27.27;;;7.50;99.90;;;;;;5051293;28;20502;-48
2022/04/16 03:46:48;;;;;;;40.03;29.37;;;7.50;99.90;;;;;;5048384;28;20551;-47
2022/04/16 03:49:14;;;;;;;40.67;29.63;;;7.50;99.90;;;;;;5050761;28;20037;-48
2022/04/16 03:51:39;;;;;;;37.60;27.83;;;7.50;99.90;;;;;;5032962;28;20499;-48
2022/04/16 04:02:18;;;;;;;35.25;26.17;;;7.60;99.90;;;;;;5030734;28;20045;-48
2022/04/16 04:04:43;;;;;;;36.87;28.10;;;7.70;99.90;;;;;;5040498;28;20034;-47
2022/04/16 04:07:10;;;;;;;40.73;28.83;;;7.70;99.90;;;;;;5032460;28;20053;-49
2022/04/16 04:09:38;;;;;;;37.50;25.48;;;7.70;99.90;;;;;;5029131;28;20072;-50
2022/04/16 04:12:08;;;;;;;37.15;25.95;;;7.70;99.90;;;;;;5046557;28;20092;-48
2022/04/16 04:14:37;;;;;;;39.97;26.23;;;7.70;99.90;;;;;;5048684;28;20041;-48
2022/04/16 04:17:03;;;;;;;37.28;25.35;;;7.70;99.90;;;;;;5034089;28;20042;-48
2022/04/16 04:19:28;;;;;;;31.02;23.48;;;7.80;99.90;;;;;;5029622;28;20044;-49
2022/04/16 04:21:54;;;;;;;27.93;22.60;;;7.80;99.90;;;;;;5043451;28;20567;-47
2022/04/16 04:24:19;;;;;;;26.33;21.50;;;7.80;99.90;;;;;;5050410;28;20045;-51
2022/04/16 04:26:45;;;;;;;29.77;22.87;;;7.80;99.90;;;;;;5046585;28;20090;-49
2022/04/16 04:29:10;;;;;;;30.67;21.20;;;7.80;99.90;;;;;;5049968;28;20063;-48
2022/04/16 04:31:36;;;;;;;27.13;20.33;;;7.80;99.90;;;;;;5044744;28;20041;-51
2022/04/16 04:34:02;;;;;;;28.27;21.10;;;7.90;99.90;;;;;;5050020;28;20036;-48
2022/04/16 04:36:27;;;;;;;28.25;21.33;;;7.80;99.90;;;;;;5037173;28;20041;-48
2022/04/16 04:38:53;;;;;;;29.87;22.27;;;7.80;99.90;;;;;;5039504;28;20448;-48
2022/04/16 04:41:18;;;;;;;30.43;20.73;;;7.80;99.90;;;;;;5048930;28;20516;-48
2022/04/16 04:43:44;;;;;;;26.87;20.07;;;7.90;99.90;;;;;;5042922;28;20036;-48
2022/04/16 04:46:10;;;;;;;26.00;19.70;;;7.90;99.90;;;;;;5029566;28;20037;-48
2022/04/16 04:48:35;;;;;;;28.63;21.30;;;7.90;99.90;;;;;;5034305;28;20032;-48
2022/04/16 04:51:01;;;;;;;28.70;21.07;;;7.90;99.90;;;;;;5040681;28;20276;-48
2022/04/16 04:53:26;;;;;;;31.97;21.80;;;7.90;99.90;;;;;;5033045;28;20036;-49
2022/04/16 04:55:52;;;;;;;28.93;20.87;;;7.90;99.90;;;;;;5048451;28;20037;-48
2022/04/16 04:58:17;;;;;;;28.33;20.03;;;7.90;99.90;;;;;;5048173;28;20111;-48
2022/04/16 05:00:43;;;;;;;31.83;21.30;;;7.90;99.90;;;;;;5049514;28;20490;-50
2022/04/16 05:03:08;;;;;;;25.27;18.30;;;7.90;99.90;;;;;;5048961;28;20041;-48
2022/04/16 05:05:34;;;;;;;26.87;18.93;;;7.90;99.90;;;;;;5033873;28;20041;-48
2022/04/16 05:07:59;;;;;;;24.93;18.47;;;7.90;99.90;;;;;;5049369;28;20041;-48
2022/04/16 05:10:25;;;;;;;28.70;20.40;;;7.90;99.90;;;;;;5031824;28;20055;-48
2022/04/16 05:12:50;;;;;;;28.30;19.00;;;8.00;99.90;;;;;;5029897;28;20052;-48
2022/04/16 05:15:16;;;;;;;26.17;19.90;;;8.00;99.90;;;;;;5044478;28;20112;-48
2022/04/16 05:17:41;;;;;;;31.13;18.17;;;8.00;99.90;;;;;;5050645;28;20041;-50
2022/04/16 05:20:08;;;;;;;25.10;18.00;;;8.00;99.90;;;;;;5051976;28;20041;-49
2022/04/16 05:22:33;;;;;;;23.75;17.85;;;8.00;99.90;;;;;;5053950;28;20491;-47
2022/04/16 05:24:59;;;;;;;27.27;18.17;;;8.10;99.90;;;;;;5052213;28;20044;-47
2022/04/16 05:27:25;;;;;;;28.77;19.57;;;8.10;99.90;;;;;;5041303;28;20045;-51
2022/04/16 05:30:02;;;;;;;24.85;19.10;;;8.10;99.90;;;;;;5041363;28;20037;-48
2022/04/16 05:32:32;;;;;;;;;;;8.20;99.90;;;;;;5053507;28;20477;-48
2022/04/16 05:34:57;;;;;;;25.27;18.38;;;8.20;99.90;;;;;;5050860;28;19917;-48
2022/04/16 05:37:23;;;;;;;25.80;18.90;;;8.30;99.90;;;;;;5045160;28;20095;-48
2022/04/16 05:39:49;;;;;;;25.33;18.27;;;8.30;99.90;;;;;;5034359;28;20087;-48
2022/04/16 05:42:15;;;;;;;32.00;18.60;;;8.40;99.90;;;;;;5033573;28;20045;-50
2022/04/16 05:44:41;;;;;;;26.60;18.65;;;8.40;99.90;;;;;;5037198;28;20379;-53
2022/04/16 05:47:06;;;;;;;26.80;19.77;;;8.50;99.90;;;;;;5049943;28;20060;-48
2022/04/16 05:49:32;;;;;;;30.87;19.43;;;8.60;99.90;;;;;;5035875;28;20075;-48
2022/04/16 05:51:57;;;;;;;22.73;17.07;;;8.60;99.90;;;;;;5052006;28;20041;-49
2022/04/16 05:54:23;;;;;;;24.17;18.57;;;8.60;99.90;;;;;;5050122;28;20446;-49
2022/04/16 05:56:48;;;;;;;24.40;18.03;;;8.70;99.90;;;;;;5052466;28;20041;-48
2022/04/16 05:59:14;;;;;;;26.57;18.20;;;8.70;99.90;;;;;;5051209;28;20068;-48
2022/04/16 06:01:40;;;;;;;25.27;18.23;;;8.80;99.90;;;;;;5051276;28;20410;-48
2022/04/16 06:04:05;;;;;;;25.58;19.08;;;8.80;99.90;;;;;;5052338;28;20041;-52
2022/04/16 06:06:31;;;;;;;29.00;18.40;;;8.90;99.90;;;;;;5039835;28;20072;-48
2022/04/16 06:08:56;;;;;;;30.40;19.50;;;8.90;99.90;;;;;;5043525;28;20040;-48
2022/04/16 06:11:25;;;;;;;24.83;17.97;;;9.00;99.90;;;;;;5050465;28;20037;-48
2022/04/16 06:13:50;;;;;;;28.60;18.67;;;9.00;99.90;;;;;;5039499;28;20069;-48
2022/04/16 06:16:16;;;;;;;28.73;17.73;;;9.10;99.90;;;;;;5042050;28;20076;-48
2022/04/16 06:18:41;;;;;;;28.23;17.50;;;9.10;99.90;;;;;;5044963;28;20071;-48
2022/04/16 06:21:07;;;;;;;28.13;16.27;;;9.20;99.90;;;;;;5039563;28;20079;-48
2022/04/16 06:23:33;;;;;;;29.53;16.37;;;9.20;99.90;;;;;;5034100;28;20045;-49
2022/04/16 06:25:58;;;;;;;18.57;14.37;;;9.20;99.90;;;;;;5050038;28;20033;-48
2022/04/16 06:28:24;;;;;;;20.92;13.95;;;9.30;99.90;;;;;;5049828;28;20450;-50
2022/04/16 06:30:50;;;;;;;23.60;15.27;;;9.40;99.90;;;;;;5048551;28;20032;-49
2022/04/16 06:33:15;;;;;;;25.57;15.67;;;9.40;99.90;;;;;;5051287;28;20041;-48
2022/04/16 06:35:42;;;;;;;24.20;15.30;;;9.40;99.90;;;;;;5043713;28;20467;-48
2022/04/16 06:38:07;;;;;;;;;;;9.40;99.90;;;;;;5039892;28;20279;-48
2022/04/16 06:40:33;;;;;;;23.75;15.25;;;9.50;99.90;;;;;;5042155;28;20472;-48
2022/04/16 06:42:58;;;;;;;22.27;15.30;;;9.50;99.90;;;;;;5052374;28;20039;-48
2022/04/16 06:45:24;;;;;;;19.97;14.57;;;9.50;99.90;;;;;;5044491;28;20103;-49
2022/04/16 06:47:50;;;;;;;25.00;15.50;;;9.50;99.90;;;;;;5036831;28;20272;-49
2022/04/16 06:50:15;;;;;;;20.13;13.57;;;9.50;99.90;;;;;;5046659;28;20107;-49
2022/04/16 06:52:41;;;;;;;20.90;14.87;;;9.50;99.90;;;;;;5031838;28;20415;-48
2022/04/16 06:55:07;;;;;;;20.80;13.63;;;9.60;99.90;;;;;;5031570;28;20781;-50
2022/04/16 06:57:32;;;;;;;21.85;14.10;;;9.60;99.90;;;;;;5048727;28;20033;-48
2022/04/16 06:59:58;;;;;;;18.83;14.10;;;9.70;99.90;;;;;;5050343;28;20728;-50
2022/04/16 07:02:24;;;;;;;18.73;13.47;;;9.70;99.90;;;;;;5049131;28;20840;-48
2022/04/16 07:04:49;;;;;;;19.03;12.60;;;9.70;99.90;;;;;;5051232;28;20045;-49
2022/04/16 07:07:15;;;;;;;16.80;12.53;;;9.70;99.90;;;;;;5034343;28;20107;-48
2022/04/16 07:09:41;;;;;;;18.03;12.10;;;9.70;99.90;;;;;;5048623;28;20489;-48
2022/04/16 07:12:08;;;;;;;17.95;11.52;;;9.80;99.90;;;;;;5039326;28;20506;-48
2022/04/16 07:14:34;;;;;;;16.20;10.93;;;9.80;99.90;;;;;;5040796;28;20494;-48
2022/04/16 07:17:03;;;;;;;14.10;10.07;;;9.80;99.90;;;;;;5031437;28;20060;-48
2022/04/16 07:19:29;;;;;;;15.60;12.00;;;9.90;99.90;;;;;;5049395;28;20033;-48
2022/04/16 07:21:55;;;;;;;16.90;11.70;;;9.90;99.90;;;;;;5031207;28;20038;-48
2022/04/16 07:24:22;;;;;;;15.38;10.48;;;9.90;99.90;;;;;;5031421;28;20048;-48
2022/04/16 07:26:48;;;;;;;18.65;9.75;;;9.90;99.90;;;;;;5030477;28;20041;-49
2022/04/16 07:29:14;;;;;;;13.47;9.27;;;10.00;99.90;;;;;;5048719;28;20536;-48
2022/04/16 07:31:39;;;;;;;16.65;11.80;;;10.00;99.90;;;;;;5035964;28;20073;-48
2022/04/16 07:34:05;;;;;;;16.08;9.25;;;10.10;99.90;;;;;;5040850;28;20315;-48
2022/04/16 07:36:31;;;;;;;9.63;7.88;;;10.10;99.90;;;;;;5047091;28;20390;-48
2022/04/16 07:38:57;;;;;;;9.90;6.88;;;10.20;99.90;;;;;;5036964;28;20028;-48
2022/04/16 07:41:23;;;;;;;11.27;7.57;;;10.20;99.90;;;;;;5036293;28;20025;-48
2022/04/16 07:43:48;;;;;;;12.13;7.93;;;10.20;99.90;;;;;;5045783;28;20041;-49
2022/04/16 07:46:15;;;;;;;12.73;7.70;;;10.30;99.90;;;;;;5047369;28;20120;-49
2022/04/16 07:48:40;;;;;;;10.18;6.97;;;10.20;99.90;;;;;;5045615;28;20040;-48
2022/04/16 07:51:06;;;;;;;11.37;8.37;;;10.30;99.90;;;;;;5045648;28;20053;-48
2022/04/16 07:53:32;;;;;;;8.35;7.22;;;10.20;99.90;;;;;;5037264;28;20337;-48
2022/04/16 07:55:58;;;;;;;9.95;5.90;;;10.20;99.90;;;;;;5048518;28;20040;-48
2022/04/16 07:58:24;;;;;;;13.10;6.85;;;10.30;99.90;;;;;;5048438;28;20531;-49
2022/04/16 08:00:50;;;;;;;23.55;6.38;;;10.30;99.90;;;;;;5035286;28;20076;-49
2022/04/16 08:03:15;;;;;;;37.10;7.47;;;10.40;99.90;;;;;;5045738;28;20073;-49
2022/04/16 08:05:41;;;;;;;147.47;14.87;;;10.40;99.90;;;;;;5049243;28;20094;-48
2022/04/16 08:08:09;;;;;;;8.15;5.50;;;10.40;99.90;;;;;;5035891;28;20045;-48
2022/04/16 08:10:37;;;;;;;7.85;4.32;;;10.50;99.90;;;;;;5042773;28;20045;-48
2022/04/16 08:13:03;;;;;;;8.68;4.68;;;10.50;99.90;;;;;;5035400;28;20049;-48
2022/04/16 08:15:29;;;;;;;6.32;3.60;;;10.60;99.90;;;;;;5028869;28;20053;-49
2022/04/16 08:17:54;;;;;;;5.93;3.77;;;10.60;99.90;;;;;;5041282;28;20043;-49
2022/04/16 08:20:20;;;;;;;6.53;3.40;;;10.70;99.90;;;;;;5044636;28;20483;-49
2022/04/16 08:22:46;;;;;;;3.67;2.30;;;10.70;99.90;;;;;;5038883;28;20076;-49
2022/04/16 08:27:48;;;;;;;6.88;3.15;;;10.80;99.90;;;;;;5039980;28;20045;-49
2022/04/16 08:30:15;;;;;;;5.00;2.97;;;10.80;99.90;;;;;;5033218;28;20045;-50
2022/04/16 08:32:43;;;;;;;6.05;2.60;;;10.90;99.90;;;;;;5047161;28;20063;-49
2022/04/16 08:35:13;;;;;;;4.65;2.10;;;11.00;99.90;;;;;;5047141;28;20047;-49
2022/04/16 08:37:40;;;;;;;4.70;2.25;;;11.00;99.90;;;;;;5037764;28;20033;-48
2022/04/16 08:40:07;;;;;;;6.93;2.00;;;11.10;99.90;;;;;;5038432;28;20064;-49
2022/04/16 08:42:34;;;;;;;5.30;2.40;;;11.10;99.90;;;;;;5037737;28;20045;-51
2022/04/16 08:45:01;;;;;;;2.63;1.55;;;11.20;99.90;;;;;;5048742;28;20506;-53
2022/04/16 08:47:26;;;;;;;7.85;1.30;;;11.20;99.00;;;;;;5042823;28;20044;-49
2022/04/16 08:49:53;;;;;;;2.80;2.20;;;11.20;98.70;;;;;;5049830;28;20127;-49
2022/04/16 08:52:20;;;;;;;;;;;11.20;98.00;;;;;;5045969;28;20498;-52
2022/04/16 08:54:45;;;;;;;2.70;1.17;;;11.30;97.10;;;;;;5031171;28;20364;-51
2022/04/16 08:57:11;;;;;;;1.90;1.33;;;11.20;96.50;;;;;;5047985;28;20041;-50
2022/04/16 08:59:37;;;;;;;4.32;1.38;;;11.30;97.00;;;;;;5029973;28;20091;-50
2022/04/16 09:02:04;;;;;;;7.38;2.25;;;11.30;97.20;;;;;;5028197;28;20045;-49
2022/04/16 09:04:32;;;;;;;2.38;1.35;;;11.30;97.10;;;;;;5037761;28;20211;-53
2022/04/16 09:07:02;;;;;;;3.90;1.30;;;11.40;97.70;;;;;;5048974;28;20047;-49
2022/04/16 09:09:28;;;;;;;1.15;0.85;;;11.40;96.40;;;;;;5030182;28;20057;-51
2022/04/16 09:11:55;;;;;;;2.72;0.80;;;11.40;95.20;;;;;;5029371;28;20049;-52
2022/04/16 09:14:35;;;;;;;1.52;0.93;;;11.50;95.50;;;;;;5033530;28;20033;-51
2022/04/16 09:17:00;;;;;;;2.35;0.82;;;11.50;94.60;;;;;;5029631;28;20163;-53
2022/04/16 09:19:29;;;;;;;1.60;1.37;;;11.50;95.70;;;;;;5045694;28;20542;-49
2022/04/16 09:21:55;;;;;;;2.17;1.13;;;11.60;95.60;;;;;;5041794;28;20039;-51
2022/04/16 09:24:21;;;;;;;5.25;1.58;;;11.70;95.70;;;;;;5041410;28;20045;-50
2022/04/16 09:26:49;;;;;;;1.30;0.85;;;11.80;96.00;;;;;;5042380;28;20033;-49
2022/04/16 09:29:16;;;;;;;2.20;0.88;;;11.90;95.30;;;;;;5045240;28;20051;-51
2022/04/16 09:31:46;;;;;;;3.05;1.17;;;11.90;95.10;;;;;;5044887;28;20038;-50
2022/04/16 09:34:23;;;;;;;2.75;1.17;;;11.90;94.00;;;;;;5030907;28;20470;-52
2022/04/16 09:36:50;;;;;;;1.65;0.57;;;12.00;94.90;;;;;;5040328;28;20075;-51
2022/04/16 09:39:16;;;;;;;2.00;0.40;;;12.00;93.60;;;;;;5029751;28;20107;-55
2022/04/16 09:41:46;;;;;;;;;;;12.00;91.80;;;;;;5032564;28;20119;-51
2022/04/16 09:44:22;;;;;;;1.23;0.57;;;12.00;91.50;;;;;;5039553;28;20329;-53
2022/04/16 09:46:49;;;;;;;3.13;0.50;;;12.00;90.20;;;;;;5032045;28;20159;-54
2022/04/16 09:49:16;;;;;;;1.77;0.47;;;12.00;90.60;;;;;;5039555;28;20136;-54
2022/04/16 09:51:43;;;;;;;1.83;0.47;;;12.00;90.00;;;;;;5030597;28;20077;-51
2022/04/16 09:54:10;;;;;;;3.13;0.88;;;12.10;90.20;;;;;;5045503;28;20451;-54
2022/04/16 09:56:46;;;;;;;6.28;0.38;;;12.10;89.00;;;;;;5033054;28;20049;-51
2022/04/16 09:59:12;;;;;;;0.90;0.40;;;12.10;86.80;;;;;;5037460;28;20049;-55
2022/04/16 10:01:43;;;;;;;1.45;0.50;;;12.10;88.00;;;;;;5043045;28;20117;-52
2022/04/16 10:04:08;;;;;;;1.05;0.50;;;12.10;86.80;;;;;;5050270;28;20394;-52
2022/04/16 10:06:34;;;;;;;2.83;0.40;;;12.20;85.40;;;;;;5042885;28;20040;-49
2022/04/16 10:09:13;;;;;;;1.33;0.30;;;12.20;84.50;;;;;;5034816;28;20044;-50
2022/04/16 10:15:02;;;;;;;1.60;0.40;;;12.30;80.00;;;;;;5051191;28;20498;-50
2022/04/16 10:17:35;;;;;;;0.57;0.43;;;12.20;77.70;;;;;;5044946;28;20063;-52
2022/04/16 10:20:10;;;;;;;1.10;0.50;;;12.30;75.70;;;;;;5053000;28;20462;-50
2022/04/16 10:22:36;;;;;;;3.67;0.40;;;12.30;77.90;;;;;;5040975;28;20049;-50
2022/04/16 10:25:02;;;;;;;;;;;12.30;74.90;;;;;;5032390;28;20418;-49
2022/04/16 10:27:29;;;;;;;2.83;0.40;;;12.40;73.40;;;;;;5042708;28;19924;-50
2022/04/16 10:30:00;;;;;;;1.15;0.38;;;12.40;74.90;;;;;;5052511;28;20044;-48
2022/04/16 10:32:41;;;;;;;1.08;0.30;;;12.50;74.90;;;;;;5042725;28;20038;-49
2022/04/16 10:35:17;;;;;;;1.58;0.30;;;12.50;73.60;;;;;;5031804;28;20042;-49
2022/04/16 10:37:48;;;;;;;1.25;0.28;;;12.50;73.00;;;;;;5044097;28;20238;-48
2022/04/16 10:40:18;;;;;;;2.40;0.38;;;12.50;73.20;;;;;;5050551;28;20498;-49
2022/04/16 10:42:49;;;;;;;2.45;0.30;;;12.50;72.20;;;;;;5046530;28;20037;-49
2022/04/16 10:45:14;;;;;;;2.88;0.30;;;12.50;72.20;;;;;;5046483;28;20033;-50
2022/04/16 10:47:41;;;;;;;0.88;0.32;;;12.50;71.20;;;;;;5037578;28;20043;-48
2022/04/16 10:50:12;;;;;;;2.05;0.40;;;12.50;71.00;;;;;;5038023;28;20529;-48
2022/04/16 10:52:37;;;;;;;0.82;0.30;;;12.50;69.20;;;;;;5040751;28;20072;-49
2022/04/16 10:55:06;;;;;;;0.70;0.30;;;12.40;70.50;;;;;;5043794;28;20072;-50
2022/04/16 10:57:32;;;;;;;4.07;0.50;;;12.50;70.20;;;;;;5043183;28;20052;-49
2022/04/16 11:00:12;;;;;;;3.92;0.30;;;12.50;72.00;;;;;;5034851;28;20041;-52
2022/04/16 11:02:38;;;;;;;1.00;0.40;;;12.60;69.90;;;;;;5042821;28;20498;-48
2022/04/16 11:05:09;;;;;;;1.40;0.50;;;12.60;69.80;;;;;;5047375;28;20117;-50
2022/04/16 11:07:37;;;;;;;1.00;0.30;;;12.60;68.50;;;;;;5041886;28;20128;-49
2022/04/16 11:10:04;;;;;;;3.15;0.45;;;12.60;70.50;;;;;;5032223;28;20045;-49
2022/04/16 11:12:30;;;;;;;2.50;0.55;;;12.70;69.60;;;;;;5037023;28;20052;-48
2022/04/16 11:14:55;;;;;;;2.43;0.37;;;12.70;71.30;;;;;;5050276;28;20044;-48
2022/04/16 11:17:22;;;;;;;1.00;0.38;;;12.70;69.20;;;;;;5045877;28;20409;-48
2022/04/16 11:20:01;;;;;;;0.88;0.40;;;12.80;69.40;;;;;;5031829;28;20071;-49
2022/04/16 11:22:27;;;;;;;1.80;0.30;;;12.80;69.00;;;;;;5029870;28;20049;-52
2022/04/16 11:24:53;;;;;;;1.08;0.20;;;13.00;69.00;;;;;;5029489;28;20045;-50
2022/04/16 11:36:12;;;;;;;1.38;0.30;;;13.30;64.40;;;;;;5039529;28;20044;-49
2022/04/16 11:38:40;;;;;;;1.25;0.50;;;13.40;63.80;;;;;;5039196;28;20557;-51
2022/04/16 11:41:08;;;;;;;2.45;0.30;;;13.40;64.40;;;;;;5038335;28;20074;-49
2022/04/16 11:43:38;;;;;;;1.85;0.30;;;13.40;66.80;;;;;;5041124;28;20076;-49
2022/04/16 11:46:11;;;;;;;1.80;0.50;;;13.50;63.60;;;;;;5041395;28;20059;-49
2022/04/16 11:48:42;;;;;;;3.97;0.45;;;13.50;63.70;;;;;;5037672;28;20033;-50
2022/04/16 11:51:08;;;;;;;0.80;0.40;;;13.50;64.90;;;;;;5040524;28;20045;-52
2022/04/16 11:53:45;;;;;;;1.08;0.38;;;13.40;63.10;;;;;;5039650;28;20038;-49
2022/04/16 11:56:11;;;;;;;1.05;0.30;;;13.40;64.70;;;;;;5038538;28;20041;-50
2022/04/16 11:58:36;;;;;;;1.23;0.30;;;13.40;63.30;;;;;;5040838;28;20029;-49
2022/04/16 12:01:03;;;;;;;1.88;0.30;;;13.40;62.40;;;;;;5040231;28;20033;-49
2022/04/16 12:03:38;;;;;;;0.80;0.50;;;13.40;60.50;;;;;;5039018;28;20043;-50
2022/04/16 12:06:11;;;;;;;0.80;0.47;;;13.40;62.00;;;;;;5035873;28;20725;-51
2022/04/16 12:08:37;;;;;;;2.25;0.40;;;13.50;61.70;;;;;;5037241;28;20522;-50
2022/04/16 12:11:03;;;;;;;1.75;0.38;;;13.50;63.30;;;;;;5040689;28;20095;-49
2022/04/16 12:13:36;;;;;;;6.97;0.60;;;13.50;62.90;;;;;;5038193;28;20086;-49
2022/04/16 12:16:07;;;;;;;1.30;0.30;;;13.50;61.30;;;;;;5039657;28;20045;-52
2022/04/16 12:18:37;;;;;;;1.10;0.30;;;13.60;61.10;;;;;;5037915;28;20033;-50
2022/04/16 12:21:21;;;;;;;1.85;0.32;;;13.60;61.30;;;;;;5038501;28;20029;-50
2022/04/16 12:23:47;;;;;;;2.10;0.50;;;13.70;60.50;;;;;;5039545;28;20466;-50
2022/04/16 12:26:17;;;;;;;1.45;0.32;;;13.70;61.60;;;;;;5034912;28;20045;-50
2022/04/16 12:28:47;;;;;;;0.77;0.22;;;13.70;60.10;;;;;;5037686;28;20052;-51
2022/04/16 12:31:12;;;;;;;1.63;0.40;;;13.70;60.10;;;;;;5037651;28;20072;-49
2022/04/16 12:33:38;;;;;;;5.13;0.50;;;13.80;61.10;;;;;;5038318;28;20487;-48
2022/04/16 12:36:06;;;;;;;1.13;0.40;;;13.80;63.60;;;;;;5039022;28;20116;-50
2022/04/16 12:38:32;;;;;;;1.60;0.30;;;13.90;60.30;;;;;;5037807;28;20417;-54
2022/04/16 12:41:09;;;;;;;1.40;0.30;;;14.00;60.70;;;;;;5038297;28;20033;-52
2022/04/16 12:43:35;;;;;;;1.42;0.30;;;14.00;60.20;;;;;;5039084;28;20580;-51
2022/04/16 12:46:01;;;;;;;0.75;0.45;;;14.10;60.80;;;;;;5036528;28;20034;-51
2022/04/16 12:48:27;;;;;;;0.60;0.35;;;14.20;60.10;;;;;;5043125;28;20095;-50
2022/04/16 12:50:53;;;;;;;1.42;0.30;;;14.20;59.10;;;;;;5030156;28;20116;-51
2022/04/16 12:53:18;;;;;;;2.60;0.30;;;14.30;58.00;;;;;;5031392;28;20124;-51
2022/04/16 12:55:44;;;;;;;1.23;0.50;;;14.30;58.60;;;;;;5047000;28;20486;-51
2022/04/16 12:58:09;;;;;;;1.33;0.30;;;14.30;57.90;;;;;;5036784;28;20356;-52
2022/04/16 13:00:35;;;;;;;1.35;0.38;;;14.30;57.40;;;;;;5048588;28;20039;-51
2022/04/16 13:03:00;;;;;;;4.90;0.55;;;14.30;58.60;;;;;;5048113;28;20077;-52
2022/04/16 13:05:29;;;;;;;0.63;0.30;;;14.40;58.50;;;;;;5030620;28;20127;-52
2022/04/16 13:07:58;;;;;;;2.88;0.40;;;14.40;58.10;;;;;;5036865;28;20283;-51
2022/04/16 13:10:23;;;;;;;2.15;0.30;;;14.30;57.00;;;;;;5032412;28;20034;-51